x

Buzzards Bay, Ma (buzm3) Weather Station

1:00 - Tue 24th Jan 2017 All times are EST. -5 hours from GMT.

  • Wind
    44mph, 51mph gusts
  • Luft Temp 39°f
  • Sea Pressure 998.7mb
  • Buzzards Bay, Ma
  • Buzzards Bay, Ma

More Historic Weather Station data

Upgrade to MSW Pro to gain access to the past 30 days of data for over 8000 Wavebouys and Weather Stations around the globe.

Join Pro

Comparision Forecast

View Surf forecast
   
Di 01/24 1:00 44 51 mph 998.7mb 39f
12:00 43 48 mph 1000.3mb 39f
Mo 01/23 11:00 40 47 mph 1001.9mb 39f
10:00 38 41 mph 1003.5mb 39f
9:00 34 40 mph 1004.8mb 40f
8:00 37 41 mph 1005.7mb 39f
7:00 38 43 mph 1005.8mb 38f
6:00 37 40 mph 1007.5mb 38f
5:00 38 43 mph 1008.2mb 39f
4:00 37 43 mph 1009.3mb 39f
3:00 33 37 mph 1010.4mb 39f
2:00 32 37 mph 1010.8mb 38f
1:00 36 43 mph 1011.2mb 38f
12:00 33 36 mph 1013.4mb 38f
11:00 34 37 mph 1013.2mb 38f
10:00 34 37 mph 1014.1mb 38f
9:00 30 36 mph 1014.5mb 37f
8:00 33 36 mph 1014.1mb 37f
7:00 34 39 mph 1013.3mb 37f
6:00 30 31 mph 1013.9mb 38f
5:00 30 32 mph 1013.7mb 38f
4:00 36 41 mph 1011.6mb 38f
3:00 29 34 mph 1013.2mb 40f
2:00 25 28 mph 1012.9mb 40f
1:00 21 23 mph 1012.8mb 40f
12:00 25 28 mph 1012mb 41f
So 01/22 11:00 23 25 mph 1011.9mb 40f
10:00 25 26 mph 1012mb 41f
9:00 28 30 mph 1011.7mb 41f
8:00 21 23 mph 1011.8mb 42f
7:00 23 24 mph 1010.3mb 42f
6:00 21 23 mph 1010.2mb 42f
5:00 21 23 mph 1009.3mb 43f
4:00 26 29 mph 1008.5mb 44f
3:00 21 23 mph 1008.2mb 44f
2:00 20 21 mph 1007.6mb 45f
1:00 16
mph
1008.1mb 44f
12:00 10 11 mph 1008.3mb 41f
11:00 9 10 mph 1008.7mb 40f
10:00 9 10 mph 1008.8mb 40f
9:00 7 8 mph 1008.9mb 39f
8:00 5
mph
1008.9mb 39f
7:00 2 3 mph 1008.9mb 39f
6:00 8
mph
1008.2mb 39f
5:00 11 14 mph 1007.6mb 40f
4:00 14 15 mph 1007.7mb 39f
3:00 10 11 mph 1008.2mb 39f
2:00 10 11 mph 1008.6mb 39f
1:00 13 14 mph 1008.2mb 39f
12:00 17 18 mph 1008.4mb 39f
Sa 01/21 11:00 15 17 mph 1008.6mb 40f
10:00 14 15 mph 1008.7mb 41f
9:00 17 18 mph 1009.1mb 41f
8:00 20 21 mph 1009.1mb 41f
7:00 20 21 mph 1009mb 41f
6:00 21 22 mph 1008.7mb 40f
5:00 21 24 mph 1009mb 40f
4:00 24 26 mph 1008.5mb 40f
3:00 24 26 mph 1008.1mb 41f
2:00 21 22 mph 1008.5mb 42f
1:00 21 23 mph 1009.3mb 42f
12:00 18 21 mph 1009.8mb 42f
11:00 18 21 mph 1010.9mb 42f
10:00 15 16 mph 1011.6mb 41f
9:00 15 16 mph 1011.7mb 42f
8:00 10 11 mph 1012mb 42f
7:00 10 11 mph 1012.1mb 42f
6:00 10 13 mph 1011.8mb 43f
5:00 11 14 mph 1012.1mb 44f
4:00 13 14 mph 1012.2mb 43f
3:00 10 11 mph 1013.1mb 42f
2:00 11
mph
1013.3mb 42f
1:00 10
mph
1013.4mb 42f
12:00 8 9 mph 1013.8mb 41f
Fr 01/20 11:00 9
mph
1014.4mb 41f
10:00 7 8 mph 1014.6mb 40f
9:00 8 9 mph 1014.6mb 40f
8:00 6
mph
1015mb 40f
7:00 7
mph
1015.2mb 40f
6:00 6 8 mph 1015.1mb 40f
5:00 7
mph
1014.7mb 40f
4:00 6
mph
1014.7mb 40f
3:00 5
mph
1015.2mb 40f
2:00 6
mph
1015.7mb 40f
1:00 7 8 mph 1015.9mb 39f
12:00 1 2 mph 1016.3mb 38f
11:00 1 2 mph 1017.2mb 37f
10:00 2
mph
1017.8mb 37f
9:00 5
mph
1017.5mb 37f
8:00 6
mph
1016.9mb 37f